sensor_id;sensor_type;location;lat;lon;timestamp;pressure;altitude;pressure_sealevel;temperature;humidity
52855;BME280;38719;51.418;7.286;2023-03-15T00:01:48;99281.06;;;5.78;54.14
52855;BME280;38719;51.418;7.286;2023-03-15T00:04:16;99282.78;;;5.79;54.54
52855;BME280;38719;51.418;7.286;2023-03-15T00:06:43;99293.75;;;5.92;54.62
52855;BME280;38719;51.418;7.286;2023-03-15T00:09:11;99294.72;;;5.90;55.56
52855;BME280;38719;51.418;7.286;2023-03-15T00:11:39;99300.84;;;5.92;55.76
52855;BME280;38719;51.418;7.286;2023-03-15T00:14:07;99309.50;;;5.70;57.04
52855;BME280;38719;51.418;7.286;2023-03-15T00:16:35;99311.69;;;5.59;58.34
52855;BME280;38719;51.418;7.286;2023-03-15T00:19:03;99326.56;;;5.61;58.14
52855;BME280;38719;51.418;7.286;2023-03-15T00:21:30;99330.72;;;5.43;59.75
52855;BME280;38719;51.418;7.286;2023-03-15T00:23:57;99330.22;;;5.57;59.47
52855;BME280;38719;51.418;7.286;2023-03-15T00:26:25;99334.53;;;5.60;59.64
52855;BME280;38719;51.418;7.286;2023-03-15T00:28:54;99337.13;;;5.61;59.48
52855;BME280;38719;51.418;7.286;2023-03-15T00:31:24;99334.13;;;5.45;60.50
52855;BME280;38719;51.418;7.286;2023-03-15T00:33:52;99339.41;;;5.47;60.59
52855;BME280;38719;51.418;7.286;2023-03-15T00:36:21;99339.63;;;5.39;61.25
52855;BME280;38719;51.418;7.286;2023-03-15T00:38:50;99339.41;;;5.45;61.36
52855;BME280;38719;51.418;7.286;2023-03-15T00:41:19;99339.34;;;5.22;62.44
52855;BME280;38719;51.418;7.286;2023-03-15T00:43:48;99347.59;;;5.38;62.31
52855;BME280;38719;51.418;7.286;2023-03-15T00:46:17;99357.94;;;5.19;62.82
52855;BME280;38719;51.418;7.286;2023-03-15T00:48:49;99351.28;;;5.33;62.67
52855;BME280;38719;51.418;7.286;2023-03-15T00:51:19;99349.25;;;5.13;63.77
52855;BME280;38719;51.418;7.286;2023-03-15T00:53:48;99350.53;;;5.02;63.86
52855;BME280;38719;51.418;7.286;2023-03-15T00:56:18;99361.72;;;4.81;65.01
52855;BME280;38719;51.418;7.286;2023-03-15T00:58:45;99360.97;;;4.78;65.41
52855;BME280;38719;51.418;7.286;2023-03-15T01:01:15;99362.19;;;4.66;66.53
52855;BME280;38719;51.418;7.286;2023-03-15T01:03:44;99370.59;;;4.49;67.67
52855;BME280;38719;51.418;7.286;2023-03-15T01:06:14;99357.16;;;4.58;68.08
52855;BME280;38719;51.418;7.286;2023-03-15T01:08:42;99377.47;;;4.55;68.40
52855;BME280;38719;51.418;7.286;2023-03-15T01:11:12;99373.38;;;4.74;68.61
52855;BME280;38719;51.418;7.286;2023-03-15T01:13:40;99384.06;;;4.70;68.51
52855;BME280;38719;51.418;7.286;2023-03-15T01:16:10;99376.59;;;4.54;69.49
52855;BME280;38719;51.418;7.286;2023-03-15T01:18:37;99384.38;;;4.59;69.79
52855;BME280;38719;51.418;7.286;2023-03-15T01:21:07;99378.50;;;4.49;70.59
52855;BME280;38719;51.418;7.286;2023-03-15T01:23:34;99381.56;;;4.65;70.63
52855;BME280;38719;51.418;7.286;2023-03-15T01:26:04;99389.16;;;4.46;70.86
52855;BME280;38719;51.418;7.286;2023-03-15T01:28:32;99387.16;;;4.23;72.43
52855;BME280;38719;51.418;7.286;2023-03-15T01:31:00;99388.19;;;4.48;71.44
52855;BME280;38719;51.418;7.286;2023-03-15T01:33:28;99383.81;;;4.47;71.67
52855;BME280;38719;51.418;7.286;2023-03-15T01:35:59;99395.50;;;4.39;71.39
52855;BME280;38719;51.418;7.286;2023-03-15T01:38:29;99395.63;;;4.34;72.15
52855;BME280;38719;51.418;7.286;2023-03-15T01:40:57;99398.97;;;4.41;71.55
52855;BME280;38719;51.418;7.286;2023-03-15T01:43:25;99387.84;;;4.29;71.97
52855;BME280;38719;51.418;7.286;2023-03-15T01:48:45;99401.34;;;4.18;71.59
52855;BME280;38719;51.418;7.286;2023-03-15T01:51:17;99401.06;;;4.28;72.27
52855;BME280;38719;51.418;7.286;2023-03-15T01:53:52;99396.53;;;4.33;71.61
52855;BME280;38719;51.418;7.286;2023-03-15T01:56:21;99403.38;;;4.09;72.19
52855;BME280;38719;51.418;7.286;2023-03-15T01:58:50;99402.97;;;3.91;73.16
52855;BME280;38719;51.418;7.286;2023-03-15T02:01:19;99398.25;;;4.02;73.18
52855;BME280;38719;51.418;7.286;2023-03-15T02:03:51;99401.25;;;4.22;72.88
52855;BME280;38719;51.418;7.286;2023-03-15T02:06:21;99403.25;;;4.13;73.19
52855;BME280;38719;51.418;7.286;2023-03-15T02:08:52;99401.19;;;4.23;73.02
52855;BME280;38719;51.418;7.286;2023-03-15T02:11:23;99408.19;;;4.24;73.15
52855;BME280;38719;51.418;7.286;2023-03-15T02:13:52;99401.34;;;4.18;72.59
52855;BME280;38719;51.418;7.286;2023-03-15T02:16:21;99408.50;;;4.13;73.26
52855;BME280;38719;51.418;7.286;2023-03-15T02:18:49;99403.59;;;4.32;73.30
52855;BME280;38719;51.418;7.286;2023-03-15T02:21:25;99408.25;;;4.23;72.13
52855;BME280;38719;51.418;7.286;2023-03-15T02:24:10;99411.72;;;4.23;72.83
52855;BME280;38719;51.418;7.286;2023-03-15T02:26:44;99412.50;;;4.27;72.31
52855;BME280;38719;51.418;7.286;2023-03-15T02:29:15;99419.31;;;4.35;72.72
52855;BME280;38719;51.418;7.286;2023-03-15T02:31:43;99415.25;;;4.24;72.87
52855;BME280;38719;51.418;7.286;2023-03-15T02:34:10;99417.31;;;4.44;72.65
52855;BME280;38719;51.418;7.286;2023-03-15T02:36:38;99411.50;;;4.32;72.53
52855;BME280;38719;51.418;7.286;2023-03-15T02:39:13;99415.53;;;4.46;72.07
52855;BME280;38719;51.418;7.286;2023-03-15T02:41:45;99424.38;;;4.43;71.71
52855;BME280;38719;51.418;7.286;2023-03-15T02:44:18;99425.34;;;4.39;72.41
52855;BME280;38719;51.418;7.286;2023-03-15T02:46:50;99428.66;;;4.47;71.96
52855;BME280;38719;51.418;7.286;2023-03-15T02:49:21;99431.72;;;4.32;72.59
52855;BME280;38719;51.418;7.286;2023-03-15T02:51:50;99431.25;;;4.17;72.98
52855;BME280;38719;51.418;7.286;2023-03-15T02:54:17;99431.06;;;4.24;73.79
52855;BME280;38719;51.418;7.286;2023-03-15T02:56:45;99427.53;;;4.25;73.94
52855;BME280;38719;51.418;7.286;2023-03-15T02:59:12;99440.66;;;4.26;72.74
52855;BME280;38719;51.418;7.286;2023-03-15T03:01:41;99449.91;;;4.08;73.63
52855;BME280;38719;51.418;7.286;2023-03-15T03:04:11;99446.84;;;4.25;73.47
52855;BME280;38719;51.418;7.286;2023-03-15T03:06:38;99440.81;;;4.20;73.28
52855;BME280;38719;51.418;7.286;2023-03-15T03:09:09;99450.47;;;4.21;73.61
52855;BME280;38719;51.418;7.286;2023-03-15T03:11:37;99448.63;;;4.23;73.21
52855;BME280;38719;51.418;7.286;2023-03-15T03:14:04;99447.72;;;4.26;73.31
52855;BME280;38719;51.418;7.286;2023-03-15T03:16:32;99441.00;;;4.45;73.13
52855;BME280;38719;51.418;7.286;2023-03-15T03:19:01;99442.69;;;4.48;72.94
52855;BME280;38719;51.418;7.286;2023-03-15T03:21:29;99456.59;;;4.55;72.92
52855;BME280;38719;51.418;7.286;2023-03-15T03:23:56;99457.81;;;4.41;73.25
52855;BME280;38719;51.418;7.286;2023-03-15T03:26:24;99450.75;;;4.43;73.00
52855;BME280;38719;51.418;7.286;2023-03-15T03:28:53;99469.28;;;4.40;73.02
52855;BME280;38719;51.418;7.286;2023-03-15T03:31:23;99475.44;;;4.39;72.66
52855;BME280;38719;51.418;7.286;2023-03-15T03:33:52;99475.94;;;4.54;72.78
52855;BME280;38719;51.418;7.286;2023-03-15T03:36:21;99485.03;;;4.43;72.96
52855;BME280;38719;51.418;7.286;2023-03-15T03:38:50;99487.50;;;4.49;72.01
52855;BME280;38719;51.418;7.286;2023-03-15T03:41:17;99504.97;;;4.19;72.67
52855;BME280;38719;51.418;7.286;2023-03-15T03:43:45;99496.38;;;4.12;73.50
52855;BME280;38719;51.418;7.286;2023-03-15T03:46:13;99506.09;;;4.10;74.46
52855;BME280;38719;51.418;7.286;2023-03-15T03:48:40;99493.50;;;4.22;73.51
52855;BME280;38719;51.418;7.286;2023-03-15T03:51:08;99507.97;;;4.05;74.15
52855;BME280;38719;51.418;7.286;2023-03-15T03:53:37;99513.25;;;4.05;74.17
52855;BME280;38719;51.418;7.286;2023-03-15T03:56:05;99504.13;;;4.18;74.25
52855;BME280;38719;51.418;7.286;2023-03-15T03:58:33;99508.91;;;4.37;73.73
52855;BME280;38719;51.418;7.286;2023-03-15T04:01:01;99516.00;;;4.35;73.19
52855;BME280;38719;51.418;7.286;2023-03-15T04:03:29;99522.53;;;4.20;73.55
52855;BME280;38719;51.418;7.286;2023-03-15T04:05:58;99532.81;;;4.29;73.18
52855;BME280;38719;51.418;7.286;2023-03-15T04:08:26;99531.38;;;4.17;73.27
52855;BME280;38719;51.418;7.286;2023-03-15T04:10:56;99532.19;;;4.21;74.07
52855;BME280;38719;51.418;7.286;2023-03-15T04:13:24;99527.72;;;4.23;73.39
52855;BME280;38719;51.418;7.286;2023-03-15T04:15:52;99545.31;;;4.23;73.79
52855;BME280;38719;51.418;7.286;2023-03-15T04:18:23;99542.44;;;4.32;73.81
52855;BME280;38719;51.418;7.286;2023-03-15T04:20:50;99554.78;;;4.30;73.54
52855;BME280;38719;51.418;7.286;2023-03-15T04:23:21;99540.34;;;4.45;73.26
52855;BME280;38719;51.418;7.286;2023-03-15T04:25:50;99545.50;;;4.49;73.48
52855;BME280;38719;51.418;7.286;2023-03-15T04:28:19;99548.44;;;4.70;72.80
52855;BME280;38719;51.418;7.286;2023-03-15T04:30:49;99561.50;;;4.43;72.17
52855;BME280;38719;51.418;7.286;2023-03-15T04:33:17;99565.81;;;4.46;72.96
52855;BME280;38719;51.418;7.286;2023-03-15T04:35:44;99559.81;;;4.41;72.62
52855;BME280;38719;51.418;7.286;2023-03-15T04:38:12;99558.44;;;4.24;72.58
52855;BME280;38719;51.418;7.286;2023-03-15T04:40:39;99560.66;;;4.41;72.30
52855;BME280;38719;51.418;7.286;2023-03-15T04:43:08;99565.34;;;4.30;71.78
52855;BME280;38719;51.418;7.286;2023-03-15T04:45:37;99568.88;;;4.29;73.66
52855;BME280;38719;51.418;7.286;2023-03-15T04:48:04;99566.47;;;4.54;72.21
52855;BME280;38719;51.418;7.286;2023-03-15T04:50:32;99569.88;;;4.58;71.62
52855;BME280;38719;51.418;7.286;2023-03-15T04:52:59;99571.13;;;4.08;72.61
52855;BME280;38719;51.418;7.286;2023-03-15T04:55:27;99574.19;;;4.27;72.96
52855;BME280;38719;51.418;7.286;2023-03-15T04:57:54;99567.72;;;4.39;72.29
52855;BME280;38719;51.418;7.286;2023-03-15T05:00:23;99570.69;;;4.27;73.41
52855;BME280;38719;51.418;7.286;2023-03-15T05:02:52;99583.69;;;4.33;72.29
52855;BME280;38719;51.418;7.286;2023-03-15T05:05:21;99577.22;;;4.46;72.13
52855;BME280;38719;51.418;7.286;2023-03-15T05:07:49;99580.69;;;4.48;72.20
52855;BME280;38719;51.418;7.286;2023-03-15T05:10:17;99584.63;;;4.32;72.54
52855;BME280;38719;51.418;7.286;2023-03-15T05:12:45;99573.56;;;4.17;72.92
52855;BME280;38719;51.418;7.286;2023-03-15T05:15:12;99581.53;;;4.14;73.82
52855;BME280;38719;51.418;7.286;2023-03-15T05:17:40;99577.22;;;4.46;73.40
52855;BME280;38719;51.418;7.286;2023-03-15T05:20:10;99584.00;;;4.57;72.34
52855;BME280;38719;51.418;7.286;2023-03-15T05:22:39;99584.00;;;4.57;73.07
52855;BME280;38719;51.418;7.286;2023-03-15T05:25:08;99594.34;;;4.30;73.25
52855;BME280;38719;51.418;7.286;2023-03-15T05:27:36;99596.09;;;4.29;73.30
52855;BME280;38719;51.418;7.286;2023-03-15T05:30:06;99605.38;;;4.46;73.21
52855;BME280;38719;51.418;7.286;2023-03-15T05:32:34;99614.84;;;4.17;73.52
52855;BME280;38719;51.418;7.286;2023-03-15T05:35:06;99613.47;;;4.38;73.07
52855;BME280;38719;51.418;7.286;2023-03-15T05:37:34;99611.00;;;4.32;72.95
52855;BME280;38719;51.418;7.286;2023-03-15T05:40:02;99619.88;;;4.28;73.02
52855;BME280;38719;51.418;7.286;2023-03-15T05:42:33;99636.72;;;4.22;73.17
52855;BME280;38719;51.418;7.286;2023-03-15T05:45:01;99645.28;;;4.30;73.41
52855;BME280;38719;51.418;7.286;2023-03-15T05:47:28;99649.09;;;4.17;73.77
52855;BME280;38719;51.418;7.286;2023-03-15T05:49:58;99654.03;;;4.32;73.52
52855;BME280;38719;51.418;7.286;2023-03-15T05:52:25;99655.47;;;4.08;73.58
52855;BME280;38719;51.418;7.286;2023-03-15T05:54:54;99663.78;;;4.29;72.89
52855;BME280;38719;51.418;7.286;2023-03-15T05:57:22;99670.78;;;4.30;73.44
52855;BME280;38719;51.418;7.286;2023-03-15T05:59:49;99673.84;;;4.11;72.98
52855;BME280;38719;51.418;7.286;2023-03-15T06:02:19;99677.38;;;4.10;73.68
52855;BME280;38719;51.418;7.286;2023-03-15T06:04:46;99685.25;;;4.13;73.45
52855;BME280;38719;51.418;7.286;2023-03-15T06:07:14;99683.34;;;4.18;73.95
52855;BME280;38719;51.418;7.286;2023-03-15T06:09:41;99685.56;;;4.37;72.73
52855;BME280;38719;51.418;7.286;2023-03-15T06:12:11;99688.34;;;4.31;73.06
52855;BME280;38719;51.418;7.286;2023-03-15T06:14:38;99697.63;;;4.47;72.47
52855;BME280;38719;51.418;7.286;2023-03-15T06:17:06;99700.09;;;4.54;71.95
52855;BME280;38719;51.418;7.286;2023-03-15T06:19:33;99701.88;;;4.53;72.26
52855;BME280;38719;51.418;7.286;2023-03-15T06:22:03;99704.22;;;4.28;72.58
52855;BME280;38719;51.418;7.286;2023-03-15T06:24:31;99702.81;;;4.50;72.56
52855;BME280;38719;51.418;7.286;2023-03-15T06:26:58;99702.00;;;4.48;71.65
52855;BME280;38719;51.418;7.286;2023-03-15T06:29:27;99708.72;;;4.60;72.46
52855;BME280;38719;51.418;7.286;2023-03-15T06:31:54;99704.91;;;4.36;73.22
52855;BME280;38719;51.418;7.286;2023-03-15T06:34:22;99707.03;;;4.58;71.90
52855;BME280;38719;51.418;7.286;2023-03-15T06:36:50;99720.44;;;4.09;74.44
52855;BME280;38719;51.418;7.286;2023-03-15T06:39:17;99723.38;;;4.36;72.88
52855;BME280;38719;51.418;7.286;2023-03-15T06:41:45;99725.41;;;4.25;73.51
52855;BME280;38719;51.418;7.286;2023-03-15T06:44:13;99722.91;;;4.18;73.46
52855;BME280;38719;51.418;7.286;2023-03-15T06:46:42;99733.44;;;4.17;74.22
52855;BME280;38719;51.418;7.286;2023-03-15T06:49:09;99738.72;;;4.18;73.54
52855;BME280;38719;51.418;7.286;2023-03-15T06:51:37;99738.44;;;4.29;74.88
52855;BME280;38719;51.418;7.286;2023-03-15T06:54:04;99742.00;;;4.28;73.13
52855;BME280;38719;51.418;7.286;2023-03-15T06:56:32;99736.88;;;4.60;73.10
52855;BME280;38719;51.418;7.286;2023-03-15T06:59:02;99749.22;;;4.58;73.03
52855;BME280;38719;51.418;7.286;2023-03-15T07:01:30;99746.34;;;4.68;72.69
52855;BME280;38719;51.418;7.286;2023-03-15T07:03:59;99754.34;;;4.65;72.76
52855;BME280;38719;51.418;7.286;2023-03-15T07:06:26;99754.16;;;4.73;72.63
52855;BME280;38719;51.418;7.286;2023-03-15T07:08:54;99757.53;;;4.78;72.94
52855;BME280;38719;51.418;7.286;2023-03-15T07:11:22;99760.19;;;4.78;72.16
52855;BME280;38719;51.418;7.286;2023-03-15T07:13:49;99756.47;;;4.86;72.08
52855;BME280;38719;51.418;7.286;2023-03-15T07:16:17;99765.00;;;4.61;72.03
52855;BME280;38719;51.418;7.286;2023-03-15T07:18:44;99765.03;;;4.58;72.92
52855;BME280;38719;51.418;7.286;2023-03-15T07:21:13;99777.06;;;4.71;72.76
52855;BME280;38719;51.418;7.286;2023-03-15T07:23:41;99781.13;;;4.84;72.01
52855;BME280;38719;51.418;7.286;2023-03-15T07:26:08;99789.66;;;4.96;72.19
52855;BME280;38719;51.418;7.286;2023-03-15T07:28:36;99800.31;;;4.91;72.65
52855;BME280;38719;51.418;7.286;2023-03-15T07:31:04;99796.13;;;4.84;73.63
52855;BME280;38719;51.418;7.286;2023-03-15T07:33:32;99794.47;;;4.78;72.23
52855;BME280;38719;51.418;7.286;2023-03-15T07:36:01;99806.97;;;4.70;73.54
52855;BME280;38719;51.418;7.286;2023-03-15T07:38:32;99803.28;;;4.77;73.03
52855;BME280;38719;51.418;7.286;2023-03-15T07:41:00;99805.28;;;5.05;71.99
52855;BME280;38719;51.418;7.286;2023-03-15T07:43:28;99804.97;;;5.18;71.19
52855;BME280;38719;51.418;7.286;2023-03-15T07:45:55;99813.91;;;5.12;71.00
52855;BME280;38719;51.418;7.286;2023-03-15T07:48:23;99813.25;;;5.02;72.27
52855;BME280;38719;51.418;7.286;2023-03-15T07:50:50;99825.41;;;5.09;71.33
52855;BME280;38719;51.418;7.286;2023-03-15T07:53:18;99829.63;;;5.16;71.41
52855;BME280;38719;51.418;7.286;2023-03-15T07:55:47;99839.94;;;5.26;70.65
52855;BME280;38719;51.418;7.286;2023-03-15T07:58:15;99850.44;;;5.29;70.16
52855;BME280;38719;51.418;7.286;2023-03-15T08:00:45;99842.47;;;4.94;71.16
52855;BME280;38719;51.418;7.286;2023-03-15T08:03:13;99860.91;;;5.32;70.27
52855;BME280;38719;51.418;7.286;2023-03-15T08:05:40;99859.06;;;5.36;70.39
52855;BME280;38719;51.418;7.286;2023-03-15T08:08:08;99869.31;;;5.49;71.34
52855;BME280;38719;51.418;7.286;2023-03-15T08:10:35;99866.25;;;5.65;69.72
52855;BME280;38719;51.418;7.286;2023-03-15T08:13:04;99871.06;;;5.84;69.25
52855;BME280;38719;51.418;7.286;2023-03-15T08:15:32;99878.66;;;5.96;68.93
52855;BME280;38719;51.418;7.286;2023-03-15T08:17:59;99878.50;;;6.02;68.84
52855;BME280;38719;51.418;7.286;2023-03-15T08:20:27;99885.03;;;6.22;68.63
52855;BME280;38719;51.418;7.286;2023-03-15T08:22:55;99884.81;;;6.29;68.21
52855;BME280;38719;51.418;7.286;2023-03-15T08:25:23;99899.72;;;6.01;68.68
52855;BME280;38719;51.418;7.286;2023-03-15T08:27:51;99901.75;;;6.22;67.36
52855;BME280;38719;51.418;7.286;2023-03-15T08:30:20;99899.25;;;6.18;67.68
52855;BME280;38719;51.418;7.286;2023-03-15T08:32:48;99903.88;;;6.09;67.15
52855;BME280;38719;51.418;7.286;2023-03-15T08:35:19;99900.56;;;6.01;67.37
52855;BME280;38719;51.418;7.286;2023-03-15T08:37:47;99910.53;;;5.90;66.97
52855;BME280;38719;51.418;7.286;2023-03-15T08:40:16;99911.84;;;5.73;68.38
52855;BME280;38719;51.418;7.286;2023-03-15T08:42:50;99916.56;;;5.95;67.61
52855;BME280;38719;51.418;7.286;2023-03-15T08:45:20;99926.31;;;6.27;64.90
52855;BME280;38719;51.418;7.286;2023-03-15T08:47:49;99924.69;;;6.22;65.85
52855;BME280;38719;51.418;7.286;2023-03-15T08:50:16;99934.44;;;6.20;65.33
52855;BME280;38719;51.418;7.286;2023-03-15T08:52:44;99934.31;;;6.24;65.77
52855;BME280;38719;51.418;7.286;2023-03-15T08:55:12;99934.66;;;6.43;65.65
52855;BME280;38719;51.418;7.286;2023-03-15T08:57:40;99939.78;;;6.50;64.88
52855;BME280;38719;51.418;7.286;2023-03-15T09:00:09;99937.13;;;6.50;64.12
52855;BME280;38719;51.418;7.286;2023-03-15T09:02:42;99944.44;;;6.41;64.61
52855;BME280;38719;51.418;7.286;2023-03-15T09:05:10;99944.22;;;6.49;64.33
52855;BME280;38719;51.418;7.286;2023-03-15T09:07:38;99947.31;;;6.34;62.70
52855;BME280;38719;51.418;7.286;2023-03-15T09:10:08;99938.41;;;6.36;63.71
52855;BME280;38719;51.418;7.286;2023-03-15T09:12:38;99932.88;;;6.75;62.90
52855;BME280;38719;51.418;7.286;2023-03-15T09:15:07;99933.47;;;6.85;62.67
52855;BME280;38719;51.418;7.286;2023-03-15T09:17:34;99943.34;;;7.08;63.16
52855;BME280;38719;51.418;7.286;2023-03-15T09:20:04;99944.00;;;7.17;61.94
52855;BME280;38719;51.418;7.286;2023-03-15T09:22:36;99948.91;;;7.01;60.63
52855;BME280;38719;51.418;7.286;2023-03-15T09:25:05;99946.03;;;6.78;61.51
52855;BME280;38719;51.418;7.286;2023-03-15T09:27:33;99947.88;;;6.43;62.63
52855;BME280;38719;51.418;7.286;2023-03-15T09:30:01;99951.69;;;6.96;61.33
52855;BME280;38719;51.418;7.286;2023-03-15T09:32:28;99963.81;;;7.03;60.10
52855;BME280;38719;51.418;7.286;2023-03-15T09:35:02;99962.53;;;7.17;58.97
52855;BME280;38719;51.418;7.286;2023-03-15T09:37:31;99965.03;;;7.21;59.49
52855;BME280;38719;51.418;7.286;2023-03-15T09:39:58;99976.13;;;7.34;58.84
52855;BME280;38719;51.418;7.286;2023-03-15T09:42:34;99971.78;;;7.60;58.39
52855;BME280;38719;51.418;7.286;2023-03-15T09:45:13;99984.13;;;7.61;59.65
52855;BME280;38719;51.418;7.286;2023-03-15T09:47:50;99985.34;;;7.78;58.41
52855;BME280;38719;51.418;7.286;2023-03-15T09:50:24;99988.47;;;7.34;58.55
52855;BME280;38719;51.418;7.286;2023-03-15T09:52:57;99994.34;;;7.45;59.94
52855;BME280;38719;51.418;7.286;2023-03-15T09:55:27;99990.00;;;7.42;57.25
52855;BME280;38719;51.418;7.286;2023-03-15T09:57:57;99986.75;;;7.04;59.23
52855;BME280;38719;51.418;7.286;2023-03-15T10:00:31;99985.81;;;7.35;58.60
52855;BME280;38719;51.418;7.286;2023-03-15T10:03:03;99992.88;;;7.63;57.56
52855;BME280;38719;51.418;7.286;2023-03-15T10:05:38;99980.56;;;7.61;57.90
52855;BME280;38719;51.418;7.286;2023-03-15T10:08:12;99990.84;;;7.71;57.38
52855;BME280;38719;51.418;7.286;2023-03-15T10:10:47;99986.03;;;7.28;56.36
52855;BME280;38719;51.418;7.286;2023-03-15T10:13:24;99988.34;;;7.38;56.71
52855;BME280;38719;51.418;7.286;2023-03-15T10:16:02;99990.94;;;7.40;57.65
52855;BME280;38719;51.418;7.286;2023-03-15T10:18:45;99986.69;;;7.06;56.91
52855;BME280;38719;51.418;7.286;2023-03-15T10:21:18;99981.41;;;7.34;57.56
52855;BME280;38719;51.418;7.286;2023-03-15T10:23:53;99976.44;;;7.52;57.56
52855;BME280;38719;51.418;7.286;2023-03-15T10:26:24;99990.59;;;7.51;57.62
52855;BME280;38719;51.418;7.286;2023-03-15T10:28:54;99987.72;;;7.85;55.89
52855;BME280;38719;51.418;7.286;2023-03-15T10:31:24;99988.75;;;8.08;54.39
52855;BME280;38719;51.418;7.286;2023-03-15T10:34:09;99983.66;;;8.27;54.48
52855;BME280;38719;51.418;7.286;2023-03-15T10:36:36;99992.47;;;8.02;54.28
52855;BME280;38719;51.418;7.286;2023-03-15T10:39:05;99998.63;;;8.55;54.62
52855;BME280;38719;51.418;7.286;2023-03-15T10:41:38;99999.78;;;8.48;55.66
52855;BME280;38719;51.418;7.286;2023-03-15T10:44:11;99994.84;;;8.62;55.16
52855;BME280;38719;51.418;7.286;2023-03-15T10:46:39;99993.00;;;8.64;54.63
52855;BME280;38719;51.418;7.286;2023-03-15T10:49:11;99998.91;;;8.96;54.16
52855;BME280;38719;51.418;7.286;2023-03-15T10:51:40;100000.59;;;8.99;52.14
52855;BME280;38719;51.418;7.286;2023-03-15T10:54:15;100002.13;;;9.04;52.29
52855;BME280;38719;51.418;7.286;2023-03-15T10:56:45;99995.63;;;9.13;51.34
52855;BME280;38719;51.418;7.286;2023-03-15T10:59:17;100000.78;;;9.40;50.38
52855;BME280;38719;51.418;7.286;2023-03-15T11:01:46;99997.97;;;9.21;50.11
52855;BME280;38719;51.418;7.286;2023-03-15T11:04:17;100001.66;;;9.17;50.39
52855;BME280;38719;51.418;7.286;2023-03-15T11:06:47;99998.84;;;8.98;51.48
52855;BME280;38719;51.418;7.286;2023-03-15T11:09:19;100005.22;;;8.68;52.14
52855;BME280;38719;51.418;7.286;2023-03-15T11:11:50;100009.47;;;8.74;51.51
52855;BME280;38719;51.418;7.286;2023-03-15T11:14:18;99998.03;;;9.19;50.75
52855;BME280;38719;51.418;7.286;2023-03-15T11:16:48;100000.06;;;9.13;47.75
52855;BME280;38719;51.418;7.286;2023-03-15T11:19:17;100000.97;;;9.35;49.82
52855;BME280;38719;51.418;7.286;2023-03-15T11:21:48;100010.25;;;9.47;50.21
52855;BME280;38719;51.418;7.286;2023-03-15T11:24:26;100002.16;;;9.50;48.91
52855;BME280;38719;51.418;7.286;2023-03-15T11:26:55;100007.03;;;9.61;45.07
52855;BME280;38719;51.418;7.286;2023-03-15T11:29:28;100012.47;;;9.36;45.26
52855;BME280;38719;51.418;7.286;2023-03-15T11:31:57;100022.56;;;9.26;47.71
52855;BME280;38719;51.418;7.286;2023-03-15T11:34:39;100023.25;;;9.31;47.50
52855;BME280;38719;51.418;7.286;2023-03-15T11:37:15;100026.47;;;8.94;44.52
52855;BME280;38719;51.418;7.286;2023-03-15T11:39:51;100024.78;;;9.15;45.48
52855;BME280;38719;51.418;7.286;2023-03-15T11:42:38;100042.00;;;9.28;45.88
52855;BME280;38719;51.418;7.286;2023-03-15T11:45:15;100039.69;;;9.19;44.65
52855;BME280;38719;51.418;7.286;2023-03-15T11:47:49;100034.06;;;8.79;45.36
52855;BME280;38719;51.418;7.286;2023-03-15T11:50:19;100042.66;;;8.86;46.87
52855;BME280;38719;51.418;7.286;2023-03-15T11:52:47;100056.38;;;8.74;48.44
52855;BME280;38719;51.418;7.286;2023-03-15T11:55:19;100049.44;;;8.95;47.24
52855;BME280;38719;51.418;7.286;2023-03-15T11:57:49;100044.53;;;9.08;47.07
52855;BME280;38719;51.418;7.286;2023-03-15T12:00:48;100047.06;;;9.11;48.01
52855;BME280;38719;51.418;7.286;2023-03-15T12:03:28;100050.53;;;8.89;49.20
52855;BME280;38719;51.418;7.286;2023-03-15T12:06:02;100045.88;;;8.70;49.23
52855;BME280;38719;51.418;7.286;2023-03-15T12:08:43;100053.09;;;8.67;50.24
52855;BME280;38719;51.418;7.286;2023-03-15T12:11:36;100045.63;;;8.53;50.53
52855;BME280;38719;51.418;7.286;2023-03-15T12:14:20;100045.88;;;8.70;49.45
52855;BME280;38719;51.418;7.286;2023-03-15T12:16:48;100049.56;;;8.66;51.84
52855;BME280;38719;51.418;7.286;2023-03-15T12:19:17;100046.34;;;9.07;50.00
52855;BME280;38719;51.418;7.286;2023-03-15T12:21:49;100035.47;;;9.37;49.13
52855;BME280;38719;51.418;7.286;2023-03-15T12:24:21;100039.31;;;9.74;48.81
52855;BME280;38719;51.418;7.286;2023-03-15T12:26:58;100032.50;;;10.11;47.62
52855;BME280;38719;51.418;7.286;2023-03-15T12:29:27;100029.22;;;10.47;46.48
52855;BME280;38719;51.418;7.286;2023-03-15T12:31:58;100035.75;;;10.61;45.34
52855;BME280;38719;51.418;7.286;2023-03-15T12:34:41;100026.16;;;10.57;45.85
52855;BME280;38719;51.418;7.286;2023-03-15T12:37:17;100023.34;;;10.60;44.26
52855;BME280;38719;51.418;7.286;2023-03-15T12:39:48;100014.00;;;10.70;45.32
52855;BME280;38719;51.418;7.286;2023-03-15T12:45:35;100030.09;;;10.26;44.85
52855;BME280;38719;51.418;7.286;2023-03-15T12:48:22;100019.88;;;9.94;44.85
52855;BME280;38719;51.418;7.286;2023-03-15T12:50:56;100021.06;;;9.65;46.33
52855;BME280;38719;51.418;7.286;2023-03-15T12:53:34;100016.38;;;9.94;45.07
52855;BME280;38719;51.418;7.286;2023-03-15T12:56:28;100013.81;;;10.33;42.72
52855;BME280;38719;51.418;7.286;2023-03-15T12:59:02;100012.19;;;10.29;41.44
52855;BME280;38719;51.418;7.286;2023-03-15T13:01:31;100017.25;;;10.15;40.12
52855;BME280;38719;51.418;7.286;2023-03-15T13:04:00;100028.69;;;9.74;42.42
52855;BME280;38719;51.418;7.286;2023-03-15T13:06:40;100023.75;;;10.51;41.31
52855;BME280;38719;51.418;7.286;2023-03-15T13:09:19;100028.47;;;10.64;41.39
52855;BME280;38719;51.418;7.286;2023-03-15T13:11:54;100018.56;;;11.08;40.08
52855;BME280;38719;51.418;7.286;2023-03-15T13:14:35;100020.84;;;11.54;40.87
52855;BME280;38719;51.418;7.286;2023-03-15T13:17:13;100014.03;;;11.66;41.00
52855;BME280;38719;51.418;7.286;2023-03-15T13:19:46;100016.91;;;11.80;41.19
52855;BME280;38719;51.418;7.286;2023-03-15T13:22:21;100024.31;;;11.92;40.07
52855;BME280;38719;51.418;7.286;2023-03-15T13:24:55;100025.97;;;11.95;40.05
52855;BME280;38719;51.418;7.286;2023-03-15T13:27:39;100019.97;;;11.72;40.34
52855;BME280;38719;51.418;7.286;2023-03-15T13:30:27;100020.97;;;11.51;39.69